Logo AVAMET
Benvolgut visitant, si us plau, ingressa Recuperar contrasenya
AVAMET paisatges

Inforatge Riola

Dades diàries. Acumulats / Últims 30 dies disponibles

Data Temperatura (°C) Humitat rel. (%) Pressió rel. (hPa) Vent (km/h) Precipitació
Mínima Mitjana Màxima Amplitud
tèrmica
Mínima Mitjana Màxima Mínima Mitjana Màxima Predom. Mitjana Ràfega
màxima
Total
(mm)
Índex-n
Mínima Mitjana Màxima Mínima Mitjana Màxima n
0 a 1
P0 max
mm 5'
Dades mensuals acumulades fins l'últim dia disponible
10/2020 10,5 14,4 18,4 19,5 13,8 25,1 32,7 22,2 19 61 94 991 1.015 1.023   6,1 62,8 3,2
Dades anuals acumulades fins l'últim dia disponible
2020 3,1 15,2 25,3 19,4 10,4 24,4 35,6 32,5 0 73 95 991 1.018 1.035   5,1 74,0 503,8
Últims 30 dies disponibles
19-10-2020 13,1     18,9     21,6 8,5 63 75 88 1.022 1.022 1.023 SSO 3,3 14,5 0,0
15-10-2020 10,5     12,3     13,8 3,3 56 66 81 1.014 1.015 1.016 ONO 3,4 12,9 0,0
14-10-2020 13,7     17,4     20,9 7,2 56 74 89 1.009 1.010 1.014 WNW 4,0 25,7 0,0
13-10-2020 13,1     20,8     29,2 16,1 30 46 80 1.010 1.014 1.019 W 6,3 30,6 0,0
12-10-2020 11,7     16,9     24,0 12,3 25 49 71 1.019 1.021 1.023 WNW 5,8 30,6 0,0
11-10-2020 15,5     19,1     22,3 6,8 33 55 94 1.020 1.022 1.023 ESE 4,5 24,1 0,0
10-10-2020 18,4     21,0     24,6 6,2 71 85 93 1.020 1.022 1.023 WNW 2,9 17,7 0,0
09-10-2020 17,6     21,3     26,1 8,5 62 80 93 1.020 1.022 1.023 ESE 4,7 22,5 0,0
08-10-2020 16,3     20,8     25,6 9,3 67 78 91 1.021 1.022 1.023 ESE 6,3 30,6 0,0
07-10-2020 17,1     23,3     30,4 13,3 WNW 6,0 25,7 0,0
06-10-2020 13,8     20,7     29,8 16,0 45 47 49 1.021 1.021 1.021 W 6,4 25,7 0,0
05-10-2020 15,1     19,4     25,1 10,0 56 60 64 1.012 1.013 1.016 WSW 6,3 22,5 0,0
04-10-2020 12,3     18,3     24,9 12,6 36 51 66 1.007 1.010 1.012 W 9,0 38,6 0,0
03-10-2020 11,8     17,2     22,9 11,1 34 48 64 1.002 1.006 1.011 W 10,5 35,4 0,0
02-10-2020 13,8     20,7     27,6 13,8 39 55 85 991 998 1.005 W 12,4 62,8 3,2 0,31 0,60
01-10-2020 17,3     24,2     32,7 15,4 19 52 93 1.005 1.009 1.014 WNW 6,3 30,6 0,0
30-09-2020 15,6     20,1     24,7 9,1 66 79 90 1.013 1.015 1.018 WNW 4,7 25,7 0,0
29-09-2020 13,9     19,3     24,8 10,9 53 72 88 1.017 1.018 1.020 WNW 4,0 24,1 0,0
28-09-2020 12,4     18,9     25,4 13,0 29 57 86 1.015 1.016 1.019 WNW 6,0 33,8 0,0
27-09-2020 15,6     20,9     24,4 8,8 25 47 70 1.009 1.011 1.015 ESE 7,7 32,2 0,0
26-09-2020 14,1     20,9     27,3 13,2 27 39 53 1.011 1.016 1.020 WNW 6,4 29,0 0,0
25-09-2020 19,9     23,3     26,8 6,9 27 42 59 1.013 1.016 1.020 WNW 10,0 43,5 0,0
24-09-2020 21,3     25,7     30,7 9,4 40 53 66 1.011 1.013 1.015 WNW 6,6 40,2 0,0
23-09-2020 19,9     24,5     31,3 11,4 38 66 90 1.010 1.012 1.013 WNW 4,3 27,4 0,0
22-09-2020 18,9     23,8     29,9 11,0 36 71 89 1.011 1.014 1.016 WNW 5,0 25,7 0,0
21-09-2020 19,8     23,9     29,7 9,9 43 63 89 1.014 1.016 1.017 WNW 6,9 32,2 0,0
20-09-2020 19,8     25,1     31,2 11,4 34 54 72 1.014 1.016 1.018 WNW 6,1 27,4 0,0
19-09-2020 17,8     23,9     30,4 12,6 35 65 92 1.014 1.015 1.017 WNW 6,0 30,6 0,0
18-09-2020 19,4     23,0     27,6 8,2 63 81 93 1.013 1.015 1.017 W 4,0 37,0 2,4 0,24 0,40
17-09-2020 21,8     24,7     28,7 6,9 60 83 93 1.014 1.016 1.018 ESE 4,8 27,4 0,0
Últims 13 mesos disponibles
09/2020 12,4 18,6 21,8 23,2 24,3 28,3 31,3 18,9 39 68 83 1.011 1.017 1.023 WNW 5,6 43,5 29,2
08/2020 15,3 22,3 25,3 26,2 25,8 31,4 35,6 20,3 51 72 85 1.004 1.014 1.018 WNW 4,1 38,6 3,0
07/2020 19,1 21,9 23,7 26,0 27,4 30,3 33,8 14,7 59 77 86 1.011 1.016 1.020 SSO 4,8 35,4 14,0
06/2020 15,1 18,9 22,6 23,4 21,4 28,4 33,3 18,2 37 71 84 1.005 1.014 1.021 WNW 5,8 38,6 37,6
05/2020 12,9 16,1 18,8 21,0 19,7 26,1 33,9 21,0 51 70 81 1.006 1.015 1.026 SW 4,8 43,5 21,6
04/2020 8,5 12,5 17,8 16,0 15,9 20,3 27,3 18,8 50 79 93 1.006 1.016 1.026 SW 4,2 38,6 62,6
03/2020 5,4 10,5 16,3 14,3 10,8 18,7 24,3 18,9 44 73 92 1.007 1.018 1.027 SW 5,6 74,0 101,0
02/2020 5,5 9,9 15,5 14,7 14,8 20,7 27,0 21,5 49 73 88 1.014 1.026 1.033 SW 4,4 38,6 2,4
01/2020 3,1 7,5 14,4 11,5 10,4 16,1 20,8 17,7 58 76 93 1.016 1.024 1.031 SW 4,5 64,4 229,2
12/2019 7,8 11,1 18,0 14,6 14,1 18,3 25,9 18,1 50 72 91 1.003 1.019 1.033 SW 6,2 72,4 129,0
11/2019 6,1 11,6 21,2 15,5 16,1 20,1 28,2 22,1 48 60 81 999 1.011 1.019 SW 7,0 53,1 10,4
10/2019 11,1 15,9 19,5 20,0 16,1 25,6 35,4 24,3 47 72 90 1.008 1.017 1.022 SW 3,5 33,8 49,6
09/2019 14,9 19,8 22,6 23,9 22,2 28,4 34,6 19,7 0 73 86 0 984 1.024 S 4,3 48,3 78,2
Tots els anys disponibles
2019 1,8 14,0 25,8 18,6 13,2 23,7 41,7 39,9 0 69 95 0 1.014 1.034 S 5,0 72,4 442,0
2018 1,4 14,2 26,9 18,5 8,5 23,3 37,1 35,7 39 71 94 994 1.017 1.036 SSO 4,6 61,1 718,2
Temperatura (°C)
Humitat relativa (%)
Velocitat del vent i ràfega màxima (km/h)
Direcció del vent (°)
Pressió (hPa)
Precipitació (mm)
Nota sobre les dades: s'avisa a l'usuari de la provisionalitat i no oficialitat d'aquestes dades
Logo AVAMET blanc
Web allotjada a Sollutia
Llicència de Creative CommonsLa web d'AVAMET i els seus continguts estan subjectes a una llicència de
Reconeixement - No Comercial - Compartir igual
Últimes estacions: Alfondeguilla (Soci), Santa Magdalena de Polpís (Soci),  Benafigos (Ajuntament Soci), Carlet - Ajuntament (Inforatge), Montroi (Inforatge), Bronchales (Limítrofe-Terol/Aj. Soci), Sueca - Muntanyeta dels Sants (Inforatge), Vilamarxant - Ajuntament (Aj. Soci/Inforatge), Monteagudo del Castillo - El Portero (Limítrofe-Terol/Soci), Calzadilla de los Barros (Limítrofe-Badajoz/Soci) - - -